Time;durP1;ratioP1;P1;durP2;ratioP2;P2;SDS_P1;SDS_P2;PMS_P1;PMS_P2;Temp;Humidity;BMP_temperature;BMP_pressure;BME280_temperature;BME280_humidity;BME280_pressure;Samples;Min_cycle;Max_cycle;Signal;HPM_P1;HPM_P2
2022/02/02 00:00:34;;;;;;;13.77;2.08;;;7.50;99.90;;;;;;4986792;28;20109;-68
2022/02/02 00:03:06;;;;;;;6.15;2.10;;;7.50;99.90;;;;;;4983939;28;20080;-68
2022/02/02 00:08:31;;;;;;;10.15;2.60;;;7.60;99.90;;;;;;4986632;28;20041;-68
2022/02/02 00:11:43;;;;;;;14.52;3.03;;;7.60;99.90;;;;;;4983935;28;20573;-68
2022/02/02 00:13:59;;;;;;;7.13;1.77;;;7.60;99.90;;;;;;4979630;28;20529;-67
2022/02/02 00:21:45;;;;;;;16.35;3.97;;;7.60;99.90;;;;;;4985761;28;20032;-67
2022/02/02 00:24:22;;;;;;;13.50;3.53;;;7.60;99.90;;;;;;4983288;28;20019;-67
2022/02/02 00:26:52;;;;;;;4.35;1.20;;;7.70;99.90;;;;;;4984227;28;20022;-67
2022/02/02 00:29:21;;;;;;;5.15;1.45;;;7.70;99.90;;;;;;4994326;28;20435;-67
2022/02/02 00:31:54;;;;;;;6.63;1.58;;;7.70;99.90;;;;;;4989735;28;20056;-67
2022/02/02 00:34:24;;;;;;;20.42;3.25;;;7.70;99.90;;;;;;4977512;28;20030;-67
2022/02/02 00:36:55;;;;;;;4.75;1.77;;;7.70;99.90;;;;;;4980179;28;20068;-67
2022/02/02 00:39:23;;;;;;;15.02;1.75;;;7.70;99.90;;;;;;4993435;28;20514;-67
2022/02/02 00:41:48;;;;;;;1.40;0.90;;;7.70;99.90;;;;;;4988825;28;20023;-67
2022/02/02 00:44:17;;;;;;;6.70;2.20;;;7.60;99.90;;;;;;4984803;28;20394;-67
2022/02/02 00:46:43;;;;;;;5.95;2.30;;;7.70;99.90;;;;;;4981870;28;20081;-67
2022/02/02 00:49:09;;;;;;;6.72;1.90;;;7.80;99.90;;;;;;4999322;28;20027;-68
2022/02/02 00:51:46;;;;;;;14.50;4.40;;;7.70;99.90;;;;;;4984578;28;20057;-68
2022/02/02 00:54:18;;;;;;;19.27;3.10;;;7.70;99.90;;;;;;4986896;28;20031;-67
2022/02/02 00:56:44;;;;;;;3.20;1.20;;;7.80;99.90;;;;;;4989501;28;20036;-67
2022/02/02 00:59:10;;;;;;;15.02;2.28;;;7.80;99.90;;;;;;4981066;28;20088;-67
2022/02/02 01:01:37;;;;;;;6.45;1.75;;;7.70;99.90;;;;;;4984355;28;20033;-67
2022/02/02 01:04:03;;;;;;;9.13;2.08;;;7.70;99.90;;;;;;4981585;28;20034;-67
2022/02/02 01:06:31;;;;;;;6.43;2.25;;;7.60;99.90;;;;;;4981547;28;20053;-67
2022/02/02 01:09:32;;;;;;;11.77;2.58;;;7.60;99.90;;;;;;4981786;28;20026;-67
2022/02/02 01:20:16;;;;;;;10.02;2.35;;;7.50;99.90;;;;;;4990493;28;20089;-67
2022/02/02 01:28:11;;;;;;;8.27;2.40;;;7.40;99.90;;;;;;4987091;28;20038;-67
2022/02/02 01:30:37;;;;;;;12.00;2.97;;;7.50;99.90;;;;;;4981177;28;20027;-67
2022/02/02 01:33:02;;;;;;;13.93;2.20;;;7.50;99.90;;;;;;4991324;28;20031;-67
2022/02/02 01:35:28;;;;;;;6.38;1.75;;;7.40;99.90;;;;;;4988321;28;20386;-67
2022/02/02 01:37:56;;;;;;;6.57;1.80;;;7.40;99.90;;;;;;4985551;28;20406;-67
2022/02/02 01:40:30;;;;;;;1.42;1.10;;;7.40;99.90;;;;;;5001393;28;20025;-67
2022/02/02 01:43:04;;;;;;;2.97;1.55;;;7.40;99.90;;;;;;4986694;28;20089;-67
2022/02/02 01:45:41;;;;;;;3.50;1.80;;;7.40;99.90;;;;;;4987229;28;20026;-67
2022/02/02 01:51:05;;;;;;;5.28;2.03;;;7.40;99.90;;;;;;4987374;28;20434;-67
2022/02/02 01:56:11;;;;;;;4.72;2.35;;;7.40;99.90;;;;;;4987047;28;20049;-68
2022/02/02 02:01:21;;;;;;;14.15;2.33;;;7.10;99.90;;;;;;4987962;28;20503;-69
2022/02/02 02:03:47;;;;;;;13.68;2.05;;;6.70;99.90;;;;;;4985966;28;20078;-68
2022/02/02 02:06:13;;;;;;;11.10;2.78;;;5.90;99.90;;;;;;4988403;28;20514;-69
2022/02/02 02:08:41;;;;;;;11.30;3.30;;;5.90;99.90;;;;;;4983250;28;20041;-69
2022/02/02 02:11:13;;;;;;;9.15;1.55;;;5.90;99.90;;;;;;4985810;28;20158;-69
2022/02/02 02:16:05;;;;;;;7.35;2.47;;;6.10;99.90;;;;;;4983956;28;20081;-69
2022/02/02 02:18:31;;;;;;;8.98;2.03;;;6.10;99.90;;;;;;4986416;28;20026;-69
2022/02/02 02:20:57;;;;;;;7.78;4.38;;;6.30;99.90;;;;;;4984143;28;20023;-69
2022/02/02 02:23:24;;;;;;;1.90;1.00;;;6.30;99.90;;;;;;4986005;28;20457;-70
2022/02/02 02:25:50;;;;;;;1.73;1.05;;;6.40;99.90;;;;;;4983052;28;20489;-69
2022/02/02 02:31:01;;;;;;;7.15;2.08;;;6.40;99.90;;;;;;4982840;28;20023;-69
2022/02/02 02:33:55;;;;;;;23.30;2.53;;;6.50;99.90;;;;;;4982865;28;20022;-69
2022/02/02 02:36:41;;;;;;;18.80;3.10;;;6.50;99.90;;;;;;4985456;28;20092;-69
2022/02/02 02:58:45;;;;;;;21.60;4.90;;;6.70;99.90;;;;;;4985732;28;20029;-69
2022/02/02 03:49:46;;;;;;;12.55;2.35;;;6.80;99.90;;;;;;4985177;28;20457;-68
2022/02/02 04:08:05;;;;;;;1.90;1.20;;;6.90;99.90;;;;;;4986168;28;20053;-68
2022/02/02 04:10:31;;;;;;;10.30;3.00;;;6.90;99.90;;;;;;4984448;28;20113;-68
2022/02/02 04:14:16;;;;;;;4.07;1.98;;;6.90;99.90;;;;;;5000639;28;20117;-68
2022/02/02 05:42:23;;;;;;;1.77;0.93;;;5.60;99.90;;;;;;5001691;28;20034;-69
2022/02/02 05:52:44;;;;;;;1.20;0.88;;;5.80;99.90;;;;;;4989424;28;20517;-69
2022/02/02 05:55:10;;;;;;;10.23;2.53;;;5.90;99.90;;;;;;4986498;28;20026;-69
2022/02/02 05:57:41;;;;;;;1.50;1.02;;;5.90;99.90;;;;;;4991915;28;20064;-69
2022/02/02 06:00:08;;;;;;;0.98;0.73;;;5.90;99.90;;;;;;4992249;28;20018;-69
2022/02/02 06:02:38;;;;;;;22.95;2.42;;;5.90;99.90;;;;;;4986134;28;20034;-69
2022/02/02 06:05:06;;;;;;;21.00;1.83;;;5.90;99.90;;;;;;4991711;28;20027;-68
2022/02/02 06:07:42;;;;;;;3.95;1.02;;;6.00;99.90;;;;;;4987482;28;20109;-68
2022/02/02 06:10:12;;;;;;;5.93;1.85;;;6.00;99.90;;;;;;4989472;28;20035;-69
2022/02/02 06:12:41;;;;;;;8.95;1.83;;;5.90;99.90;;;;;;4993955;28;20121;-68
2022/02/02 06:15:11;;;;;;;3.67;1.55;;;5.90;99.90;;;;;;4994651;28;20058;-68
2022/02/02 06:17:42;;;;;;;3.72;1.38;;;5.90;99.90;;;;;;5005243;28;20064;-68
2022/02/02 06:20:09;;;;;;;2.60;1.08;;;5.90;99.90;;;;;;4987866;28;20101;-68
2022/02/02 06:22:41;;;;;;;4.93;1.15;;;6.00;99.90;;;;;;4991817;28;20114;-68
2022/02/02 06:25:28;;;;;;;2.05;1.13;;;6.00;99.90;;;;;;4991602;28;20395;-68
2022/02/02 06:28:09;;;;;;;1.52;1.00;;;6.00;99.90;;;;;;4986530;28;20113;-68
2022/02/02 06:30:35;;;;;;;5.32;1.83;;;6.00;99.90;;;;;;4993388;28;20057;-69
2022/02/02 06:33:07;;;;;;;5.25;1.50;;;6.00;99.90;;;;;;4989916;28;20470;-68
2022/02/02 06:35:34;;;;;;;3.78;1.58;;;6.10;99.90;;;;;;4980615;28;20038;-68
2022/02/02 06:38:00;;;;;;;5.15;1.77;;;6.10;99.90;;;;;;4980408;28;20070;-68
2022/02/02 06:40:26;;;;;;;8.57;2.00;;;6.10;99.90;;;;;;4987012;28;20023;-68
2022/02/02 06:42:52;;;;;;;5.03;1.40;;;6.10;99.90;;;;;;4983588;28;20029;-68
2022/02/02 06:45:19;;;;;;;7.63;2.13;;;6.10;99.90;;;;;;5005890;28;20026;-68
2022/02/02 06:47:46;;;;;;;7.00;1.88;;;6.10;99.90;;;;;;4996484;28;20113;-68
2022/02/02 06:50:17;;;;;;;13.40;1.52;;;6.20;99.90;;;;;;4986254;28;20541;-68
2022/02/02 06:53:18;;;;;;;4.45;1.63;;;6.10;99.90;;;;;;4984342;28;20027;-68
2022/02/02 06:56:47;;;;;;;12.98;1.98;;;6.20;99.90;;;;;;4998394;28;20466;-67
2022/02/02 06:59:44;;;;;;;3.60;0.90;;;6.20;99.90;;;;;;4996027;28;20453;-67
2022/02/02 07:02:21;;;;;;;17.55;2.50;;;6.20;99.90;;;;;;4993248;28;20018;-68
2022/02/02 07:13:14;;;;;;;4.47;1.52;;;6.30;99.90;;;;;;4991199;28;20340;-67
2022/02/02 07:20:51;;;;;;;1.80;1.17;;;6.30;99.90;;;;;;4984850;28;20092;-67
2022/02/02 07:32:07;;;;;;;1.45;0.98;;;6.20;99.90;;;;;;4986630;28;20034;-68
2022/02/02 07:37:36;;;;;;;6.93;1.35;;;6.20;99.90;;;;;;4983040;28;20049;-68
2022/02/02 07:40:05;;;;;;;6.43;1.65;;;6.20;99.90;;;;;;4982212;28;20030;-68
2022/02/02 07:42:32;;;;;;;10.20;2.25;;;6.30;99.90;;;;;;4981712;28;20483;-68
2022/02/02 07:45:07;;;;;;;3.40;1.00;;;6.30;99.90;;;;;;4978630;28;20035;-68
2022/02/02 07:47:37;;;;;;;7.45;1.85;;;6.30;99.90;;;;;;4976623;28;20034;-68
2022/02/02 07:50:05;;;;;;;2.90;0.77;;;6.30;99.90;;;;;;4973315;28;20030;-68
2022/02/02 07:52:31;;;;;;;7.30;1.75;;;6.30;99.90;;;;;;4986117;28;20038;-68
2022/02/02 07:55:01;;;;;;;10.20;1.95;;;6.30;99.90;;;;;;4981845;28;20031;-68
2022/02/02 07:57:28;;;;;;;0.77;0.77;;;6.30;99.90;;;;;;4975913;28;20035;-68
2022/02/02 07:59:58;;;;;;;6.13;2.28;;;6.30;99.90;;;;;;4979276;28;20022;-68
2022/02/02 08:02:42;;;;;;;5.47;1.85;;;6.20;99.90;;;;;;4975967;28;20030;-68
2022/02/02 08:05:10;;;;;;;5.05;1.35;;;6.20;99.90;;;;;;4981643;28;20030;-68
2022/02/02 08:07:42;;;;;;;1.48;1.17;;;6.20;99.90;;;;;;4978703;28;20055;-67
2022/02/02 08:10:16;;;;;;;1.75;1.10;;;6.20;99.90;;;;;;4973355;28;20076;-68
2022/02/02 08:12:46;;;;;;;9.10;2.75;;;6.20;99.90;;;;;;4978039;28;20041;-68
2022/02/02 08:15:13;;;;;;;4.57;2.03;;;6.20;99.90;;;;;;4980158;28;20034;-68
2022/02/02 08:17:40;;;;;;;5.47;1.20;;;6.20;99.90;;;;;;4980858;28;20069;-68
2022/02/02 08:20:06;;;;;;;20.13;3.63;;;6.20;99.90;;;;;;4988507;28;20026;-67
2022/02/02 08:22:32;;;;;;;6.00;1.90;;;6.20;99.90;;;;;;4981335;28;20151;-67
2022/02/02 08:24:58;;;;;;;1.33;0.82;;;6.10;99.90;;;;;;4985474;28;20109;-67
2022/02/02 08:27:24;;;;;;;17.45;3.38;;;6.10;99.90;;;;;;4985643;28;20029;-67
2022/02/02 08:29:50;;;;;;;5.93;3.58;;;6.20;99.90;;;;;;4985220;28;20026;-68
2022/02/02 08:32:16;;;;;;;5.45;1.83;;;6.30;99.90;;;;;;4990968;28;20170;-67
2022/02/02 08:34:47;;;;;;;5.20;1.85;;;6.20;99.90;;;;;;4989678;28;20395;-67
2022/02/02 08:37:13;;;;;;;11.32;2.13;;;6.20;99.90;;;;;;4986868;28;20113;-67
2022/02/02 08:40:00;;;;;;;6.25;3.15;;;6.00;99.90;;;;;;4978018;28;20166;-68
2022/02/02 08:42:30;;;;;;;10.02;2.72;;;6.00;99.90;;;;;;4987467;28;20165;-68
2022/02/02 08:45:18;;;;;;;5.38;1.15;;;6.00;99.90;;;;;;4985185;28;20033;-68
2022/02/02 08:47:50;;;;;;;1.30;1.00;;;6.00;99.90;;;;;;4984700;28;20188;-68
2022/02/02 08:50:15;;;;;;;18.67;1.77;;;6.00;99.90;;;;;;4979503;28;20023;-68
2022/02/02 08:52:52;;;;;;;6.90;1.77;;;6.00;99.90;;;;;;4990129;28;20041;-68
2022/02/02 08:55:24;;;;;;;7.60;2.05;;;6.00;99.90;;;;;;4981965;28;20019;-68
2022/02/02 08:58:17;;;;;;;1.92;1.73;;;6.10;99.90;;;;;;4985528;28;20034;-68
2022/02/02 09:00:42;;;;;;;1.75;1.08;;;6.10;99.90;;;;;;4987757;28;20027;-68
2022/02/02 09:05:52;;;;;;;3.30;1.67;;;6.20;99.90;;;;;;4986161;28;20077;-68
2022/02/02 09:08:19;;;;;;;8.13;3.53;;;6.30;99.90;;;;;;4982239;28;20481;-68
2022/02/02 09:23:01;;;;;;;5.00;1.48;;;7.40;99.90;;;;;;4984689;28;20040;-68
2022/02/02 09:25:23;;;;;;;4.80;1.35;;;7.40;99.90;;;;;;4980110;28;20511;-68
2022/02/02 09:35:32;;;;;;;7.35;2.95;;;7.30;99.90;;;;;;4993796;28;20553;-68
2022/02/02 09:37:58;;;;;;;6.15;1.35;;;7.30;99.90;;;;;;4983374;28;20038;-68
2022/02/02 09:41:11;;;;;;;3.08;1.45;;;7.20;99.90;;;;;;4988255;28;20022;-68
2022/02/02 09:43:22;;;;;;;7.25;2.13;;;7.20;99.90;;;;;;4988734;28;20038;-69
2022/02/02 09:45:54;;;;;;;12.02;1.38;;;7.30;99.90;;;;;;4988060;28;20367;-68
2022/02/02 09:48:29;;;;;;;2.83;1.85;;;7.30;99.90;;;;;;4985671;28;20030;-68
2022/02/02 09:51:01;;;;;;;10.35;1.83;;;7.30;99.90;;;;;;4986204;28;20033;-68
2022/02/02 09:53:55;;;;;;;9.38;1.20;;;7.40;99.90;;;;;;4989130;28;20176;-68
2022/02/02 10:02:08;;;;;;;4.00;1.58;;;8.30;99.90;;;;;;4981786;28;20031;-68
2022/02/02 10:15:31;;;;;;;2.67;1.20;;;9.00;99.90;;;;;;4988987;28;20035;-67
2022/02/02 10:17:59;;;;;;;2.28;0.80;;;8.90;99.90;;;;;;4998470;28;20027;-67
2022/02/02 10:20:26;;;;;;;5.78;1.38;;;8.90;99.90;;;;;;4989017;28;20018;-68
2022/02/02 10:22:57;;;;;;;3.92;1.50;;;8.60;99.90;;;;;;4999767;28;20100;-67
2022/02/02 10:25:31;;;;;;;13.10;2.80;;;8.10;99.90;;;;;;4989502;28;20101;-67
2022/02/02 10:28:11;;;;;;;3.00;1.10;;;8.00;99.90;;;;;;5001072;28;20562;-67
2022/02/02 10:30:37;;;;;;;14.33;1.87;;;8.20;99.90;;;;;;4986751;28;20026;-67
2022/02/02 10:33:05;;;;;;;5.70;2.05;;;8.20;99.90;;;;;;4987274;28;20038;-67
2022/02/02 10:35:37;;;;;;;1.65;0.85;;;8.20;99.90;;;;;;4988894;28;20113;-67
2022/02/02 10:38:08;;;;;;;7.75;1.58;;;8.00;99.90;;;;;;4984264;28;20039;-67
2022/02/02 10:40:44;;;;;;;5.53;1.73;;;7.90;99.90;;;;;;4984991;28;20022;-67
2022/02/02 10:43:18;;;;;;;4.93;1.30;;;8.30;99.90;;;;;;4981510;28;20029;-67
2022/02/02 10:45:44;;;;;;;5.47;1.92;;;8.40;99.90;;;;;;4986793;28;20073;-67
2022/02/02 10:48:18;;;;;;;2.88;1.55;;;8.60;99.90;;;;;;4986368;28;20030;-68
2022/02/02 10:50:57;;;;;;;3.45;2.35;;;8.80;99.90;;;;;;4991443;28;20034;-67
2022/02/02 10:58:30;;;;;;;8.52;2.35;;;8.60;99.90;;;;;;4985681;28;21852;-67
2022/02/02 11:08:53;;;;;;;8.13;2.35;;;10.10;99.90;;;;;;4984743;28;20093;-67
2022/02/02 11:11:19;;;;;;;13.15;1.65;;;9.60;99.90;;;;;;4990446;28;20054;-67
2022/02/02 11:13:52;;;;;;;6.80;1.55;;;9.10;99.90;;;;;;4994449;28;20027;-68
2022/02/02 11:16:26;;;;;;;5.70;1.38;;;10.00;99.90;;;;;;4988679;28;21097;-68
2022/02/02 11:18:53;;;;;;;4.07;1.33;;;10.00;99.90;;;;;;4987583;28;20030;-68
2022/02/02 11:21:21;;;;;;;6.85;1.98;;;9.20;99.90;;;;;;4989064;28;20026;-67
2022/02/02 11:23:49;;;;;;;8.68;1.52;;;9.20;99.90;;;;;;4982449;28;20023;-68
2022/02/02 11:26:37;;;;;;;6.28;1.60;;;8.90;99.90;;;;;;4985186;28;20022;-67
2022/02/02 11:29:03;;;;;;;5.32;1.90;;;8.60;99.90;;;;;;4979135;28;20545;-67
2022/02/02 11:31:29;;;;;;;1.85;1.00;;;8.50;99.90;;;;;;4986314;28;20022;-67
2022/02/02 11:33:57;;;;;;;5.00;1.77;;;8.40;99.90;;;;;;4981883;28;20031;-67
2022/02/02 11:36:39;;;;;;;3.95;1.80;;;8.50;99.90;;;;;;4985317;28;20049;-67
2022/02/02 11:39:26;;;;;;;3.40;1.13;;;8.60;99.90;;;;;;4982168;28;20030;-67
2022/02/02 11:41:59;;;;;;;4.93;1.13;;;8.80;99.90;;;;;;4982159;28;20033;-67
2022/02/02 11:44:53;;;;;;;32.17;2.25;;;8.80;99.90;;;;;;4986129;28;20559;-67
2022/02/02 11:47:44;;;;;;;9.07;1.42;;;9.00;99.90;;;;;;4984638;28;20496;-67
2022/02/02 11:50:09;;;;;;;4.18;1.33;;;9.00;99.90;;;;;;4981472;28;20077;-67
2022/02/02 11:52:38;;;;;;;1.83;0.82;;;8.80;99.90;;;;;;4995179;28;20473;-67
2022/02/02 11:55:11;;;;;;;1.48;0.80;;;9.10;99.90;;;;;;4994623;28;20445;-67
2022/02/02 11:58:16;;;;;;;1.52;1.25;;;9.50;99.90;;;;;;4990954;28;20421;-67
2022/02/02 12:06:42;;;;;;;1.50;0.80;;;9.10;99.90;;;;;;4985485;28;20265;-67
2022/02/02 12:09:18;;;;;;;13.10;1.25;;;9.10;99.90;;;;;;4984393;28;20041;-67
2022/02/02 12:45:08;;;;;;;6.38;1.92;;;8.70;99.90;;;;;;4987572;28;20126;-67
2022/02/02 12:53:34;;;;;;;4.28;1.73;;;8.60;99.90;;;;;;4981971;28;20037;-67
2022/02/02 12:56:24;;;;;;;1.05;0.60;;;8.50;99.90;;;;;;4982485;28;20517;-67
2022/02/02 12:58:51;;;;;;;7.15;2.17;;;9.00;99.90;;;;;;4986123;28;20026;-67
2022/02/02 13:01:21;;;;;;;3.45;1.15;;;9.30;99.90;;;;;;4986085;28;20352;-67
2022/02/02 13:03:47;;;;;;;6.87;1.23;;;9.10;99.90;;;;;;4980988;28;20027;-67
2022/02/02 13:06:19;;;;;;;3.65;0.90;;;9.00;99.90;;;;;;4985652;28;20047;-67
2022/02/02 13:08:51;;;;;;;8.73;1.98;;;9.00;99.90;;;;;;4986223;28;20364;-67
2022/02/02 13:11:32;;;;;;;3.47;1.10;;;8.90;99.90;;;;;;4992584;28;20390;-67
2022/02/02 13:14:02;;;;;;;3.03;1.10;;;8.90;99.90;;;;;;4990763;28;20501;-67
2022/02/02 13:16:29;;;;;;;4.68;1.05;;;9.20;99.90;;;;;;4992648;28;20486;-67
2022/02/02 13:19:01;;;;;;;4.28;1.00;;;9.80;99.90;;;;;;4989898;28;20439;-67
2022/02/02 13:21:34;;;;;;;3.40;1.27;;;9.60;99.90;;;;;;4989124;28;20482;-67
2022/02/02 13:24:11;;;;;;;1.90;0.80;;;9.50;99.90;;;;;;4989876;28;20018;-67
2022/02/02 13:31:51;;;;;;;2.22;1.05;;;9.40;99.90;;;;;;4998257;28;20033;-67
2022/02/02 13:37:41;;;;;;;0.90;0.85;;;9.30;99.90;;;;;;4996224;28;20038;-67
2022/02/02 13:46:04;;;;;;;2.20;1.08;;;9.80;99.90;;;;;;4999157;28;20545;-67
2022/02/02 14:04:07;;;;;;;8.52;1.65;;;10.20;99.90;;;;;;4994739;28;20032;-67
2022/02/02 14:33:29;;;;;;;2.30;1.02;;;9.40;99.90;;;;;;4988307;28;20027;-67
2022/02/02 14:35:58;;;;;;;2.55;1.10;;;9.80;99.90;;;;;;4991482;28;20027;-67
2022/02/02 14:38:24;;;;;;;2.75;1.42;;;9.80;99.90;;;;;;4978752;28;20042;-68
2022/02/02 14:43:23;;;;;;;3.10;0.70;;;10.50;99.90;;;;;;4984652;28;20466;-68
2022/02/02 14:45:53;;;;;;;0.90;0.70;;;10.50;99.90;;;;;;5001211;28;20031;-68
2022/02/02 14:48:30;;;;;;;;;;;10.50;99.90;;;;;;4985556;28;20026;-68
2022/02/02 14:56:50;;;;;;;1.75;1.13;;;10.10;99.90;;;;;;4982911;28;20549;-68
2022/02/02 15:29:40;;;;;;;2.58;1.05;;;9.70;99.90;;;;;;4978151;28;20149;-68
2022/02/02 15:32:07;;;;;;;0.70;0.70;;;9.60;99.90;;;;;;4986187;28;20105;-67
2022/02/02 15:34:39;;;;;;;5.68;1.30;;;9.60;99.90;;;;;;4984837;28;20042;-67
2022/02/02 15:39:40;;;;;;;5.38;2.00;;;9.50;99.90;;;;;;4982510;28;20141;-68
2022/02/02 15:45:04;;;;;;;1.33;0.90;;;9.50;99.90;;;;;;4988050;28;20030;-67
2022/02/02 15:58:31;;;;;;;3.83;1.00;;;9.00;99.90;;;;;;4994396;28;20117;-68
2022/02/02 16:06:09;;;;;;;6.88;1.20;;;8.60;99.90;;;;;;4987800;28;20049;-68
2022/02/02 16:08:37;;;;;;;2.13;0.85;;;8.50;99.90;;;;;;4987653;28;20041;-68
2022/02/02 16:11:27;;;;;;;10.25;1.73;;;8.40;99.90;;;;;;4986906;28;20113;-68
2022/02/02 16:13:53;;;;;;;1.20;1.00;;;8.30;99.90;;;;;;4984570;28;20545;-68
2022/02/02 16:18:50;;;;;;;2.47;1.15;;;8.40;99.90;;;;;;4983878;28;20045;-68
2022/02/02 16:37:39;;;;;;;5.85;1.40;;;8.00;99.90;;;;;;4981095;28;20112;-68
2022/02/02 16:40:08;;;;;;;5.88;1.27;;;7.80;99.90;;;;;;4987648;28;20033;-68
2022/02/02 16:45:19;;;;;;;1.48;0.85;;;7.60;99.90;;;;;;4989849;28;20069;-68
2022/02/02 16:47:45;;;;;;;3.72;1.27;;;7.70;99.90;;;;;;4988763;28;20058;-68
2022/02/02 16:50:21;;;;;;;5.80;1.65;;;7.70;99.90;;;;;;4988632;28;20514;-68
2022/02/02 16:52:49;;;;;;;0.73;0.73;;;7.80;99.90;;;;;;5002461;28;20034;-68
2022/02/02 16:55:32;;;;;;;3.97;1.42;;;7.70;99.90;;;;;;4988632;28;20133;-68
2022/02/02 17:30:55;;;;;;;5.18;2.03;;;6.40;99.90;;;;;;4983641;28;20057;-68
2022/02/02 17:33:30;;;;;;;4.93;1.73;;;6.40;99.90;;;;;;4994773;28;20022;-68
2022/02/02 17:38:56;;;;;;;8.60;1.73;;;5.90;99.90;;;;;;4989147;28;20924;-68
2022/02/02 17:41:54;;;;;;;8.85;2.47;;;5.70;99.90;;;;;;4988960;28;20073;-68
2022/02/02 18:19:23;;;;;;;6.70;3.10;;;5.30;99.90;;;;;;4981785;28;20462;-68
2022/02/02 18:21:49;;;;;;;7.90;2.22;;;5.20;99.90;;;;;;4992224;28;20053;-68
2022/02/02 18:26:54;;;;;;;18.83;2.35;;;5.10;99.90;;;;;;4991130;28;20053;-68
2022/02/02 18:29:49;;;;;;;2.55;1.48;;;5.10;99.90;;;;;;4988260;28;20049;-68
2022/02/02 18:34:42;;;;;;;4.32;1.40;;;4.90;99.90;;;;;;4991822;28;20038;-68
2022/02/02 19:00:55;;;;;;;3.47;1.38;;;5.50;99.90;;;;;;4997040;28;20018;-68
2022/02/02 19:06:32;;;;;;;5.65;1.73;;;5.70;99.90;;;;;;4995006;28;20499;-68
2022/02/02 19:15:02;;;;;;;8.23;3.03;;;6.10;99.90;;;;;;4988473;28;20456;-68
2022/02/02 20:03:18;;;;;;;9.77;2.92;;;5.90;99.90;;;;;;4985371;28;20353;-67
2022/02/02 20:06:02;;;;;;;6.93;2.55;;;5.70;99.90;;;;;;4987238;28;20462;-67
2022/02/02 20:09:08;;;;;;;3.92;1.58;;;5.70;99.90;;;;;;4987587;28;20042;-67
2022/02/02 20:11:19;;;;;;;5.47;2.25;;;5.70;99.90;;;;;;4987420;28;20440;-68
2022/02/02 20:13:45;;;;;;;4.35;1.50;;;5.80;99.90;;;;;;4990094;28;20079;-67
2022/02/02 20:16:10;;;;;;;2.28;1.50;;;5.70;99.90;;;;;;4991294;28;20026;-68
2022/02/02 20:18:41;;;;;;;3.13;1.30;;;5.80;99.90;;;;;;4988834;28;20038;-69
2022/02/02 20:21:09;;;;;;;4.20;1.73;;;5.80;99.90;;;;;;4987718;28;20389;-67
2022/02/02 20:23:46;;;;;;;5.43;2.25;;;5.90;99.90;;;;;;4988344;28;20025;-67
2022/02/02 20:26:15;;;;;;;6.05;2.08;;;5.90;99.90;;;;;;4989510;28;20308;-67
2022/02/02 20:28:41;;;;;;;5.03;1.58;;;6.00;99.90;;;;;;4996278;28;20033;-67
2022/02/02 20:31:06;;;;;;;7.82;2.40;;;6.00;99.90;;;;;;4990191;28;20026;-67
2022/02/02 20:33:32;;;;;;;18.98;2.33;;;6.10;99.90;;;;;;4985777;28;20026;-67
2022/02/02 20:35:58;;;;;;;5.60;2.33;;;6.20;99.90;;;;;;4989499;28;20061;-68
2022/02/02 20:38:23;;;;;;;5.75;2.38;;;6.40;99.90;;;;;;4986926;28;20085;-68
2022/02/02 20:40:49;;;;;;;5.97;2.65;;;6.50;99.90;;;;;;4989659;28;20026;-68
2022/02/02 20:43:28;;;;;;;5.22;2.33;;;6.60;99.90;;;;;;4987157;28;20014;-68
2022/02/02 20:46:08;;;;;;;3.97;1.83;;;6.70;99.90;;;;;;4987849;28;20505;-68
2022/02/02 21:07:54;;;;;;;13.18;3.88;;;7.10;99.90;;;;;;4988349;28;20066;-68
2022/02/02 21:10:24;;;;;;;6.03;2.50;;;7.10;99.90;;;;;;4980497;28;20522;-68
2022/02/02 21:15:37;;;;;;;13.55;3.85;;;7.10;99.90;;;;;;4992020;28;20118;-68
2022/02/02 21:18:16;;;;;;;12.15;4.35;;;7.20;99.90;;;;;;5004771;28;20030;-68
2022/02/02 21:20:53;;;;;;;12.20;2.58;;;7.30;99.90;;;;;;4986048;28;20018;-68
2022/02/02 21:28:38;;;;;;;10.17;3.70;;;7.40;99.90;;;;;;4984633;28;20276;-68
2022/02/02 21:31:05;;;;;;;7.93;3.60;;;7.40;99.90;;;;;;4985576;28;20467;-68
2022/02/02 21:33:33;;;;;;;15.63;4.05;;;7.40;99.90;;;;;;4989716;28;20033;-68
2022/02/02 21:35:58;;;;;;;7.72;2.97;;;7.40;99.90;;;;;;4992221;28;20345;-68
2022/02/02 21:40:57;;;;;;;13.55;3.40;;;7.50;99.90;;;;;;4992825;28;20029;-67
2022/02/02 21:43:24;;;;;;;7.82;2.80;;;7.50;99.90;;;;;;4984237;28;20142;-67
2022/02/02 21:45:50;;;;;;;12.68;5.25;;;7.60;99.90;;;;;;4983225;28;20034;-67
2022/02/02 21:48:16;;;;;;;14.05;3.78;;;7.60;99.90;;;;;;4995707;28;20026;-67
2022/02/02 21:53:13;;;;;;;8.38;2.70;;;7.60;99.90;;;;;;4991570;28;20367;-67
2022/02/02 21:55:39;;;;;;;9.70;4.18;;;7.60;99.90;;;;;;4983108;28;20065;-67
2022/02/02 21:58:05;;;;;;;6.35;2.85;;;7.60;99.90;;;;;;4995537;28;20030;-67
2022/02/02 22:00:31;;;;;;;12.07;2.90;;;7.60;99.90;;;;;;4989152;28;20105;-67
2022/02/02 22:02:57;;;;;;;20.05;5.80;;;7.70;99.90;;;;;;4992061;28;20031;-67
2022/02/02 22:05:22;;;;;;;15.27;3.92;;;7.70;99.90;;;;;;4988574;28;20022;-67
2022/02/02 22:07:48;;;;;;;15.30;5.07;;;7.70;99.90;;;;;;4995234;28;20413;-67
2022/02/02 22:10:16;;;;;;;10.20;4.22;;;7.60;99.90;;;;;;4990957;28;20145;-67
2022/02/02 22:12:42;;;;;;;11.80;4.30;;;7.70;99.90;;;;;;5001123;28;20030;-67
2022/02/02 22:15:14;;;;;;;18.55;4.97;;;7.70;99.90;;;;;;4994115;28;20026;-68
2022/02/02 22:17:40;;;;;;;11.70;4.10;;;7.70;99.90;;;;;;4995713;28;20080;-68
2022/02/02 22:20:06;;;;;;;13.82;4.95;;;7.70;99.90;;;;;;4992589;28;20034;-68
2022/02/02 22:22:32;;;;;;;11.85;3.67;;;7.70;99.90;;;;;;4996252;28;20010;-67
2022/02/02 22:24:59;;;;;;;13.45;4.78;;;7.70;99.90;;;;;;4991270;28;20737;-67
2022/02/02 22:27:24;;;;;;;7.15;3.53;;;7.60;99.90;;;;;;4993021;28;20021;-67
2022/02/02 22:29:50;;;;;;;13.55;5.15;;;7.60;99.90;;;;;;4985700;28;20030;-68
2022/02/02 22:32:15;;;;;;;13.43;4.40;;;7.60;99.90;;;;;;4985216;28;20026;-68
2022/02/02 22:34:41;;;;;;;10.93;5.18;;;7.60;99.90;;;;;;4985739;28;20158;-68
2022/02/02 22:37:07;;;;;;;8.82;3.47;;;7.60;99.90;;;;;;4986469;28;20030;-68
2022/02/02 22:39:39;;;;;;;17.85;4.35;;;7.60;99.90;;;;;;4987160;28;20026;-68
2022/02/02 22:42:05;;;;;;;13.93;5.07;;;7.50;99.90;;;;;;4991730;28;20022;-68
2022/02/02 22:44:31;;;;;;;16.30;4.32;;;7.50;99.90;;;;;;4992185;28;20026;-68
2022/02/02 22:47:03;;;;;;;15.68;5.15;;;7.40;99.90;;;;;;4992209;28;20513;-68
2022/02/02 22:49:29;;;;;;;11.80;5.05;;;7.50;99.90;;;;;;4991048;28;20112;-68
2022/02/02 22:51:55;;;;;;;10.57;4.32;;;7.50;99.90;;;;;;4996726;28;20117;-68
2022/02/02 22:54:21;;;;;;;5.43;2.60;;;7.50;99.90;;;;;;4997879;28;20026;-68
2022/02/02 22:56:46;;;;;;;8.52;3.92;;;7.50;99.90;;;;;;4991795;28;20116;-68
2022/02/02 22:59:12;;;;;;;11.02;3.97;;;7.50;99.90;;;;;;4987518;28;20030;-68
2022/02/02 23:01:38;;;;;;;6.35;2.08;;;7.40;99.90;;;;;;4990020;28;20026;-68
2022/02/02 23:04:04;;;;;;;8.50;2.80;;;7.50;99.90;;;;;;4986760;28;20018;-68
2022/02/02 23:06:30;;;;;;;5.78;2.90;;;7.50;99.90;;;;;;4985552;28;20073;-68
2022/02/02 23:08:57;;;;;;;5.95;2.67;;;7.50;99.90;;;;;;5013417;28;20486;-68
2022/02/02 23:11:23;;;;;;;11.65;4.35;;;7.50;99.90;;;;;;4987970;28;20498;-68
2022/02/02 23:13:51;;;;;;;7.22;2.58;;;7.50;99.90;;;;;;4990862;28;20030;-68
2022/02/02 23:16:26;;;;;;;6.72;2.90;;;7.50;99.90;;;;;;4993746;28;20022;-68
2022/02/02 23:18:51;;;;;;;7.15;3.03;;;7.50;99.90;;;;;;4998247;28;20018;-68
2022/02/02 23:21:18;;;;;;;14.38;3.38;;;7.50;99.90;;;;;;4997345;28;20603;-68
2022/02/02 23:23:46;;;;;;;9.52;3.97;;;7.50;99.90;;;;;;4984278;28;20023;-68
2022/02/02 23:26:13;;;;;;;9.77;3.08;;;7.50;99.90;;;;;;4989939;28;20104;-67
2022/02/02 23:28:44;;;;;;;5.80;3.33;;;7.50;99.90;;;;;;4981380;28;20054;-67
2022/02/02 23:31:12;;;;;;;7.00;2.55;;;7.60;99.90;;;;;;4985510;28;20025;-67
2022/02/02 23:33:41;;;;;;;21.95;4.80;;;7.60;99.90;;;;;;4986328;28;20037;-67
2022/02/02 23:36:07;;;;;;;5.85;2.50;;;7.60;99.90;;;;;;4985891;28;20106;-68
2022/02/02 23:38:33;;;;;;;10.60;3.83;;;7.60;99.90;;;;;;4979882;28;20232;-68
2022/02/02 23:43:32;;;;;;;7.68;2.15;;;7.60;99.90;;;;;;4986013;28;20019;-68
2022/02/02 23:46:12;;;;;;;6.63;3.03;;;7.60;99.90;;;;;;4985856;28;20026;-68
2022/02/02 23:48:45;;;;;;;6.90;3.00;;;7.70;99.90;;;;;;4985886;28;20142;-68
2022/02/02 23:51:35;;;;;;;8.75;3.65;;;7.70;99.90;;;;;;4984979;28;20023;-68
2022/02/02 23:54:04;;;;;;;10.07;4.32;;;7.70;99.90;;;;;;4988747;28;20466;-67
2022/02/02 23:56:42;;;;;;;7.85;3.15;;;7.70;99.90;;;;;;4984030;28;20031;-67
2022/02/02 23:59:23;;;;;;;9.65;2.95;;;7.80;99.90;;;;;;4983902;28;20042;-67
